Clarklake, Michigan
Current Conditions -  °F | °C
As of 7:04 AM on Sunday 25 Jan 2015 (Local Time) from KJXN Reporting Station
Overcast Overcast  
Wind Chill: 20°   Ceiling: 1000
Heat Index: 30°   Visibility: 10mi
Dew Point: 26°   Wind: 14mph
Humidity: 85%   Direction: 40°NE
Pressure: 29.76"   Gusts: 18mph
Location:  42.12°N, 84.34°W
Report Text: KJXN 251204Z 04012G16KT 10SM OVC010 M01/M03 A2976 RMK AO2 T10111033
Loading
Personal Weather Stations






























Interactive Weather Map New forecast layout! Learn more

10-Day Weather Forecast

Advertisements
Track Severe Weather on mobile